Time;durP1;ratioP1;P1;durP2;ratioP2;P2;SDS_P1;SDS_P2;PMS_P1;PMS_P2;Temp;Humidity;BMP_temperature;BMP_pressure;BME280_temperature;BME280_humidity;BME280_pressure;Samples;Min_cycle;Max_cycle;Signal;HPM_P1;HPM_P2
2023/04/01 00:00:53;;;;;;;7.38;6.68;;;;;;;;;;4249445;28;20042;-62
2023/04/01 00:03:13;;;;;;;5.72;5.63;;;;;;;;;;4248630;28;20086;-61
2023/04/01 00:05:33;;;;;;;6.15;5.88;;;;;;;;;;4247879;28;20051;-62
2023/04/01 00:07:54;;;;;;;6.88;6.00;;;;;;;;;;4246065;28;20242;-61
2023/04/01 00:10:14;;;;;;;6.20;6.07;;;;;;;;;;4249004;28;20051;-61
2023/04/01 00:12:35;;;;;;;6.75;6.40;;;;;;;;;;4247864;28;20101;-61
2023/04/01 00:14:55;;;;;;;5.55;5.45;;;;;;;;;;4248798;28;20103;-61
2023/04/01 00:17:15;;;;;;;6.07;5.95;;;;;;;;;;4247565;28;20295;-61
2023/04/01 00:19:36;;;;;;;6.28;6.07;;;;;;;;;;4248761;28;20038;-60
2023/04/01 00:21:57;;;;;;;4.90;4.80;;;;;;;;;;4251757;28;20155;-61
2023/04/01 00:24:17;;;;;;;4.43;4.43;;;;;;;;;;4247930;28;20072;-61
2023/04/01 00:26:37;;;;;;;5.32;4.93;;;;;;;;;;4246074;28;20046;-61
2023/04/01 00:28:57;;;;;;;5.78;5.32;;;;;;;;;;4247960;28;20072;-61
2023/04/01 00:31:17;;;;;;;5.35;4.88;;;;;;;;;;4246758;28;20042;-60
2023/04/01 00:33:38;;;;;;;6.25;6.00;;;;;;;;;;4243566;28;20057;-60
2023/04/01 00:36:06;;;;;;;5.85;5.75;;;;;;;;;;4246445;27;20042;-61
2023/04/01 00:38:26;;;;;;;5.40;5.30;;;;;;;;;;4246292;28;20090;-61
2023/04/01 00:40:46;;;;;;;6.40;6.07;;;;;;;;;;4246140;28;20092;-60
2023/04/01 00:43:19;;;;;;;6.32;6.22;;;;;;;;;;4244657;28;20444;-60
2023/04/01 00:45:40;;;;;;;5.38;5.18;;;;;;;;;;4249161;28;20118;-60
2023/04/01 00:48:02;;;;;;;5.50;5.40;;;;;;;;;;4245691;28;20054;-60
2023/04/01 00:50:25;;;;;;;5.88;5.78;;;;;;;;;;4243503;28;20046;-60
2023/04/01 00:52:44;;;;;;;6.03;5.78;;;;;;;;;;4245349;28;20047;-60
2023/04/01 00:55:05;;;;;;;5.75;5.38;;;;;;;;;;4250142;28;20120;-60
2023/04/01 00:57:31;;;;;;;6.55;6.40;;;;;;;;;;4253232;28;20396;-60
2023/04/01 00:59:53;;;;;;;6.38;6.25;;;;;;;;;;4243564;28;20038;-60
2023/04/01 01:02:13;;;;;;;6.20;6.10;;;;;;;;;;4244754;28;20088;-59
2023/04/01 01:04:35;;;;;;;6.25;5.88;;;;;;;;;;4244401;28;20066;-59
2023/04/01 01:07:01;;;;;;;4.90;4.70;;;;;;;;;;4249470;28;20070;-59
2023/04/01 01:09:21;;;;;;;6.80;6.35;;;;;;;;;;4248437;28;20038;-59
2023/04/01 01:11:44;;;;;;;7.43;7.22;;;;;;;;;;4247946;28;20055;-60
2023/04/01 01:14:04;;;;;;;;;;;;;;;;;;4247783;28;20377;-60
2023/04/01 01:16:24;;;;;;;6.88;6.75;;;;;;;;;;4252872;28;19979;-60
2023/04/01 01:18:51;;;;;;;5.95;5.78;;;;;;;;;;4246343;28;20047;-60
2023/04/01 01:21:36;;;;;;;7.85;7.55;;;;;;;;;;4246513;28;20255;-60
2023/04/01 01:24:03;;;;;;;7.00;6.38;;;;;;;;;;4243806;28;20058;-60
2023/04/01 01:26:38;;;;;;;6.40;6.30;;;;;;;;;;4245850;28;20050;-60
2023/04/01 01:29:18;;;;;;;5.97;5.88;;;;;;;;;;4247094;28;20131;-60
2023/04/01 01:31:45;;;;;;;7.20;7.05;;;;;;;;;;4246788;28;20265;-60
2023/04/01 01:34:17;;;;;;;7.28;7.05;;;;;;;;;;4246642;28;20089;-60
2023/04/01 01:36:38;;;;;;;6.60;6.40;;;;;;;;;;4247435;27;20054;-59
2023/04/01 01:38:58;;;;;;;7.45;7.28;;;;;;;;;;4246829;28;20042;-59
2023/04/01 01:41:21;;;;;;;5.95;5.75;;;;;;;;;;4248452;28;20068;-60
2023/04/01 01:43:43;;;;;;;7.05;6.95;;;;;;;;;;4246926;28;20054;-59
2023/04/01 01:46:07;;;;;;;7.18;6.88;;;;;;;;;;4245194;28;20078;-59
2023/04/01 01:48:28;;;;;;;5.60;5.43;;;;;;;;;;4247970;28;20277;-59
2023/04/01 01:50:49;;;;;;;6.93;6.72;;;;;;;;;;4247708;28;20054;-59
2023/04/01 01:53:10;;;;;;;6.55;6.25;;;;;;;;;;4245712;28;20072;-59
2023/04/01 01:55:35;;;;;;;7.25;7.05;;;;;;;;;;4244199;28;20084;-60
2023/04/01 01:57:58;;;;;;;5.97;5.88;;;;;;;;;;4247785;28;20038;-59
2023/04/01 02:00:18;;;;;;;7.00;6.67;;;;;;;;;;4251615;28;20073;-59
2023/04/01 02:02:44;;;;;;;6.85;6.57;;;;;;;;;;4246544;28;20320;-60
2023/04/01 02:05:05;;;;;;;6.40;6.22;;;;;;;;;;4242816;28;20288;-59
2023/04/01 02:07:28;;;;;;;6.45;6.10;;;;;;;;;;4244016;28;20080;-59
2023/04/01 02:09:50;;;;;;;6.65;6.22;;;;;;;;;;4246004;28;20064;-59
2023/04/01 02:12:12;;;;;;;7.53;7.15;;;;;;;;;;4245695;28;20054;-60
2023/04/01 02:14:52;;;;;;;7.13;6.83;;;;;;;;;;4247713;28;20107;-59
2023/04/01 02:17:16;;;;;;;6.30;6.10;;;;;;;;;;4243384;28;20074;-59
2023/04/01 02:19:39;;;;;;;7.82;7.45;;;;;;;;;;4245576;28;20073;-59
2023/04/01 02:22:01;;;;;;;7.00;6.63;;;;;;;;;;4246676;28;20043;-59
2023/04/01 02:24:23;;;;;;;7.03;6.73;;;;;;;;;;4245483;28;20054;-59
2023/04/01 02:26:45;;;;;;;7.75;7.65;;;;;;;;;;4246208;28;20346;-60
2023/04/01 02:29:08;;;;;;;7.00;6.72;;;;;;;;;;4246961;28;20054;-59
2023/04/01 02:31:29;;;;;;;6.95;6.55;;;;;;;;;;4244556;28;20058;-59
2023/04/01 02:33:49;;;;;;;14.43;8.43;;;;;;;;;;4246235;28;20050;-60
2023/04/01 02:36:16;;;;;;;6.70;6.32;;;;;;;;;;4246315;28;20123;-60
2023/04/01 02:38:36;;;;;;;7.90;7.53;;;;;;;;;;4245063;28;20086;-59
2023/04/01 02:41:01;;;;;;;8.93;8.48;;;;;;;;;;4232659;28;20099;-59
2023/04/01 02:43:21;;;;;;;7.82;7.50;;;;;;;;;;4246364;28;20084;-60
2023/04/01 02:45:41;;;;;;;6.28;6.05;;;;;;;;;;4246129;28;20075;-60
2023/04/01 02:48:01;;;;;;;7.82;7.28;;;;;;;;;;4244070;28;20080;-60
2023/04/01 02:50:21;;;;;;;8.05;7.63;;;;;;;;;;4240395;28;20050;-60
2023/04/01 02:52:42;;;;;;;7.82;7.55;;;;;;;;;;4246771;28;20050;-60
2023/04/01 02:55:02;;;;;;;7.53;7.32;;;;;;;;;;4229556;28;20162;-59
2023/04/01 02:57:23;;;;;;;7.45;7.13;;;;;;;;;;4245988;28;20074;-59
2023/04/01 02:59:43;;;;;;;8.25;8.02;;;;;;;;;;4247040;28;20046;-59
2023/04/01 03:02:03;;;;;;;8.27;7.85;;;;;;;;;;4241277;28;20322;-59
2023/04/01 03:04:24;;;;;;;7.70;7.47;;;;;;;;;;4243963;28;20046;-59
2023/04/01 03:06:45;;;;;;;7.45;7.25;;;;;;;;;;4246808;28;20054;-60
2023/04/01 03:09:05;;;;;;;7.18;6.95;;;;;;;;;;4244273;28;20047;-60
2023/04/01 03:11:26;;;;;;;7.70;7.47;;;;;;;;;;4243196;28;20228;-60
2023/04/01 03:13:46;;;;;;;7.47;7.35;;;;;;;;;;4248431;28;20038;-60
2023/04/01 03:16:07;;;;;;;7.57;7.47;;;;;;;;;;4248457;28;20111;-60
2023/04/01 03:18:27;;;;;;;8.05;7.88;;;;;;;;;;4247606;28;20058;-60
2023/04/01 03:20:47;;;;;;;6.80;6.70;;;;;;;;;;4249718;28;20401;-60
2023/04/01 03:23:08;;;;;;;7.53;7.30;;;;;;;;;;4247914;28;20103;-59
2023/04/01 03:25:30;;;;;;;7.28;6.93;;;;;;;;;;4246029;28;20055;-60
2023/04/01 03:27:51;;;;;;;7.30;6.97;;;;;;;;;;4247828;28;20050;-59
2023/04/01 03:30:11;;;;;;;8.82;8.10;;;;;;;;;;4248899;28;20118;-59
2023/04/01 03:32:31;;;;;;;8.45;8.07;;;;;;;;;;4246838;28;20066;-60
2023/04/01 03:34:52;;;;;;;7.25;7.13;;;;;;;;;;4249727;28;20050;-60
2023/04/01 03:37:12;;;;;;;6.63;6.47;;;;;;;;;;4249205;27;20046;-60
2023/04/01 03:39:32;;;;;;;7.93;7.53;;;;;;;;;;4246900;28;20046;-59
2023/04/01 03:41:53;;;;;;;7.75;7.47;;;;;;;;;;4244757;28;20047;-59
2023/04/01 03:44:13;;;;;;;9.02;8.75;;;;;;;;;;4248036;28;20042;-59
2023/04/01 03:46:33;;;;;;;7.20;6.88;;;;;;;;;;4253749;28;20112;-60
2023/04/01 03:48:53;;;;;;;8.45;8.15;;;;;;;;;;4249964;28;20070;-59
2023/04/01 03:51:14;;;;;;;8.05;7.85;;;;;;;;;;4246168;28;20131;-59
2023/04/01 03:53:34;;;;;;;7.43;7.13;;;;;;;;;;4248587;28;20051;-59
2023/04/01 03:55:55;;;;;;;8.00;7.80;;;;;;;;;;4246986;28;20267;-60
2023/04/01 03:58:15;;;;;;;9.35;8.77;;;;;;;;;;4247475;28;20410;-60
2023/04/01 04:00:36;;;;;;;9.48;9.10;;;;;;;;;;4249265;28;20097;-60
2023/04/01 04:02:56;;;;;;;8.80;8.52;;;;;;;;;;4244756;28;20054;-60
2023/04/01 04:05:16;;;;;;;7.97;7.78;;;;;;;;;;4248502;28;20055;-60
2023/04/01 04:07:37;;;;;;;12.25;8.60;;;;;;;;;;4235856;28;20130;-60
2023/04/01 04:09:57;;;;;;;8.88;8.60;;;;;;;;;;4249185;28;20271;-59
2023/04/01 04:12:17;;;;;;;7.88;7.60;;;;;;;;;;4247833;28;20084;-60
2023/04/01 04:14:37;;;;;;;8.63;8.43;;;;;;;;;;4248560;28;20392;-60
2023/04/01 04:16:58;;;;;;;9.05;8.85;;;;;;;;;;4247429;28;20083;-60
2023/04/01 04:19:18;;;;;;;7.00;6.90;;;;;;;;;;4251323;28;20042;-60
2023/04/01 04:21:39;;;;;;;8.48;8.27;;;;;;;;;;4247976;28;20086;-59
2023/04/01 04:24:03;;;;;;;8.95;8.77;;;;;;;;;;4247968;27;20080;-59
2023/04/01 04:26:23;;;;;;;8.13;7.97;;;;;;;;;;4245121;28;20106;-59
2023/04/01 04:28:43;;;;;;;8.70;8.30;;;;;;;;;;4252843;28;20088;-59
2023/04/01 04:31:05;;;;;;;9.35;9.25;;;;;;;;;;4249456;28;20286;-59
2023/04/01 04:33:26;;;;;;;9.05;8.88;;;;;;;;;;4245814;28;20076;-59
2023/04/01 04:35:46;;;;;;;7.75;7.55;;;;;;;;;;4245689;28;20365;-59
2023/04/01 04:38:06;;;;;;;8.10;8.00;;;;;;;;;;4248626;28;20051;-59
2023/04/01 04:40:26;;;;;;;8.45;8.27;;;;;;;;;;4249400;28;20109;-58
2023/04/01 04:42:47;;;;;;;8.82;8.52;;;;;;;;;;4247721;28;20414;-59
2023/04/01 04:45:07;;;;;;;10.30;9.77;;;;;;;;;;4248836;28;20076;-59
2023/04/01 04:47:27;;;;;;;112.53;12.85;;;;;;;;;;4247278;28;20370;-58
2023/04/01 04:49:48;;;;;;;200.02;16.20;;;;;;;;;;4253196;28;20069;-59
2023/04/01 04:52:08;;;;;;;52.92;11.50;;;;;;;;;;4247783;28;20081;-58
2023/04/01 04:54:28;;;;;;;449.75;26.10;;;;;;;;;;4246032;28;20108;-59
2023/04/01 04:56:48;;;;;;;323.85;21.00;;;;;;;;;;4246374;28;20066;-59
2023/04/01 04:59:09;;;;;;;139.38;16.52;;;;;;;;;;4246817;28;20107;-59
2023/04/01 05:01:29;;;;;;;11.02;10.73;;;;;;;;;;4247122;28;20062;-59
2023/04/01 05:03:51;;;;;;;55.88;12.57;;;;;;;;;;4247589;28;20074;-59
2023/04/01 05:06:13;;;;;;;73.75;12.10;;;;;;;;;;4246110;28;20051;-59
2023/04/01 05:08:33;;;;;;;118.70;12.32;;;;;;;;;;4248011;28;20058;-59
2023/04/01 05:10:54;;;;;;;113.28;13.43;;;;;;;;;;4248939;28;20046;-59
2023/04/01 05:13:14;;;;;;;109.80;12.50;;;;;;;;;;4249456;28;20092;-59
2023/04/01 05:15:35;;;;;;;241.52;18.35;;;;;;;;;;4247427;28;20074;-59
2023/04/01 05:17:55;;;;;;;173.10;13.10;;;;;;;;;;4246695;28;20085;-59
2023/04/01 05:20:16;;;;;;;342.13;21.95;;;;;;;;;;4247860;28;20142;-59
2023/04/01 05:22:36;;;;;;;227.88;15.98;;;;;;;;;;4247221;28;20082;-60
2023/04/01 05:24:56;;;;;;;229.18;17.42;;;;;;;;;;4247594;28;20079;-59
2023/04/01 05:27:16;;;;;;;382.70;22.52;;;;;;;;;;4245101;28;20398;-59
2023/04/01 05:29:36;;;;;;;9.88;8.88;;;;;;;;;;4246457;28;20065;-60
2023/04/01 05:31:57;;;;;;;110.00;13.25;;;;;;;;;;4247545;28;20054;-60
2023/04/01 05:34:17;;;;;;;156.70;13.90;;;;;;;;;;4249329;28;20054;-59
2023/04/01 05:36:38;;;;;;;155.52;13.10;;;;;;;;;;4245826;28;20074;-60
2023/04/01 05:38:58;;;;;;;144.45;12.10;;;;;;;;;;4248139;28;20278;-59
2023/04/01 05:41:18;;;;;;;117.25;10.40;;;;;;;;;;4245421;28;20065;-59
2023/04/01 05:43:38;;;;;;;124.75;12.48;;;;;;;;;;4250235;28;20120;-59
2023/04/01 05:45:58;;;;;;;9.50;9.07;;;;;;;;;;4249253;28;20062;-60
2023/04/01 05:48:19;;;;;;;85.10;11.32;;;;;;;;;;4245939;28;20054;-59
2023/04/01 05:50:41;;;;;;;76.05;14.02;;;;;;;;;;4243761;28;20235;-60
2023/04/01 05:53:01;;;;;;;13.50;12.50;;;;;;;;;;4250568;28;20092;-60
2023/04/01 05:55:21;;;;;;;56.45;17.33;;;;;;;;;;4247075;28;20046;-60
2023/04/01 05:57:41;;;;;;;282.23;25.50;;;;;;;;;;4245392;28;20240;-59
2023/04/01 06:00:01;;;;;;;379.10;25.02;;;;;;;;;;4243419;28;20369;-59
2023/04/01 06:02:22;;;;;;;327.75;22.67;;;;;;;;;;4247934;28;20156;-59
2023/04/01 06:04:42;;;;;;;303.98;21.90;;;;;;;;;;4251082;28;20042;-60
2023/04/01 06:07:05;;;;;;;222.80;15.90;;;;;;;;;;4247333;28;20041;-60
2023/04/01 06:09:25;;;;;;;;;;;;;;;;;;4247272;28;20132;-59
2023/04/01 06:11:45;;;;;;;127.10;12.07;;;;;;;;;;4245165;28;19983;-60
2023/04/01 06:14:15;;;;;;;132.35;12.57;;;;;;;;;;4244368;28;20096;-59
2023/04/01 06:17:01;;;;;;;115.95;13.48;;;;;;;;;;4247193;28;20051;-59
2023/04/01 06:19:22;;;;;;;43.53;9.60;;;;;;;;;;4244733;28;20111;-60
2023/04/01 06:21:42;;;;;;;24.85;8.35;;;;;;;;;;4246377;28;20133;-60
2023/04/01 06:24:16;;;;;;;34.85;9.55;;;;;;;;;;4246823;28;20102;-60
2023/04/01 06:26:52;;;;;;;128.80;11.27;;;;;;;;;;4245504;28;20243;-60
2023/04/01 06:29:21;;;;;;;90.90;11.27;;;;;;;;;;4245980;28;20124;-60
2023/04/01 06:31:52;;;;;;;32.90;9.55;;;;;;;;;;4247418;28;20034;-60
2023/04/01 06:34:28;;;;;;;10.52;10.15;;;;;;;;;;4245449;28;20126;-60
2023/04/01 06:36:58;;;;;;;9.70;9.20;;;;;;;;;;4238885;28;20247;-59
2023/04/01 06:39:38;;;;;;;12.90;11.38;;;;;;;;;;4246672;28;20062;-59
2023/04/01 06:41:58;;;;;;;232.32;27.10;;;;;;;;;;4244776;28;20138;-59
2023/04/01 06:44:21;;;;;;;144.05;17.05;;;;;;;;;;4243788;28;20105;-59
2023/04/01 06:46:51;;;;;;;52.97;13.57;;;;;;;;;;4248518;28;20077;-59
2023/04/01 06:49:19;;;;;;;13.98;12.52;;;;;;;;;;4249259;28;20250;-59
2023/04/01 06:51:48;;;;;;;12.45;11.45;;;;;;;;;;4243989;28;20065;-59
2023/04/01 06:54:09;;;;;;;12.38;11.63;;;;;;;;;;4248696;28;20049;-59
2023/04/01 06:56:32;;;;;;;13.57;12.75;;;;;;;;;;4250152;28;20060;-59
2023/04/01 06:58:59;;;;;;;12.95;12.15;;;;;;;;;;4247650;28;20054;-59
2023/04/01 07:01:24;;;;;;;12.32;11.68;;;;;;;;;;4247371;28;20070;-59
2023/04/01 07:03:56;;;;;;;11.80;11.20;;;;;;;;;;4250610;28;20034;-59
2023/04/01 07:06:23;;;;;;;14.02;13.18;;;;;;;;;;4245127;28;20081;-59
2023/04/01 07:08:45;;;;;;;13.57;12.73;;;;;;;;;;4241148;28;20082;-59
2023/04/01 07:11:06;;;;;;;13.32;12.52;;;;;;;;;;4244210;28;20055;-59
2023/04/01 07:13:40;;;;;;;14.48;13.57;;;;;;;;;;4245260;28;20046;-59
2023/04/01 07:16:21;;;;;;;13.43;12.63;;;;;;;;;;4243705;28;20061;-59
2023/04/01 07:18:49;;;;;;;12.15;11.45;;;;;;;;;;4243384;28;20089;-58
2023/04/01 07:21:14;;;;;;;11.75;11.20;;;;;;;;;;4252013;28;20366;-59
2023/04/01 07:23:39;;;;;;;11.40;10.85;;;;;;;;;;4253191;28;20034;-58
2023/04/01 07:26:01;;;;;;;11.02;10.48;;;;;;;;;;4252240;28;20235;-58
2023/04/01 07:28:22;;;;;;;11.82;11.25;;;;;;;;;;4248430;28;20054;-58
2023/04/01 07:31:01;;;;;;;12.07;11.43;;;;;;;;;;4243502;28;20092;-58
2023/04/01 07:33:42;;;;;;;15.95;14.85;;;;;;;;;;4244818;28;20046;-58
2023/04/01 07:36:11;;;;;;;16.55;15.30;;;;;;;;;;4249100;28;20044;-58
2023/04/01 07:38:34;;;;;;;14.32;13.48;;;;;;;;;;4250346;28;20279;-58
2023/04/01 07:40:58;;;;;;;13.52;12.68;;;;;;;;;;4243568;28;20046;-58
2023/04/01 07:43:18;;;;;;;10.18;9.70;;;;;;;;;;4248504;28;20238;-58
2023/04/01 07:45:41;;;;;;;10.27;9.88;;;;;;;;;;4250413;28;20247;-58
2023/04/01 07:48:20;;;;;;;9.45;8.95;;;;;;;;;;4251990;28;20050;-58
2023/04/01 07:50:44;;;;;;;11.85;11.05;;;;;;;;;;4245628;28;20241;-58
2023/04/01 07:53:06;;;;;;;10.82;10.23;;;;;;;;;;4249233;28;20050;-58
2023/04/01 07:55:31;;;;;;;11.35;10.85;;;;;;;;;;4248086;28;20227;-58
2023/04/01 07:57:58;;;;;;;10.20;9.73;;;;;;;;;;4253296;28;20097;-58
2023/04/01 08:00:23;;;;;;;8.25;8.05;;;;;;;;;;4247181;28;20080;-58
2023/04/01 08:03:02;;;;;;;7.35;7.05;;;;;;;;;;4245838;28;20238;-58
2023/04/01 08:05:27;;;;;;;8.40;8.10;;;;;;;;;;4249615;28;20046;-58
2023/04/01 08:08:06;;;;;;;7.57;7.38;;;;;;;;;;4250025;28;20363;-58
2023/04/01 08:10:32;;;;;;;6.68;6.47;;;;;;;;;;4248502;28;20273;-58
2023/04/01 08:12:53;;;;;;;11.65;10.57;;;;;;;;;;4245201;28;20084;-58
2023/04/01 08:15:13;;;;;;;6.93;6.63;;;;;;;;;;4251744;28;20066;-58
2023/04/01 08:17:45;;;;;;;5.85;5.75;;;;;;;;;;4248888;28;20234;-58
2023/04/01 08:20:19;;;;;;;6.05;5.75;;;;;;;;;;4248150;28;20235;-58
2023/04/01 08:22:45;;;;;;;4.38;4.28;;;;;;;;;;4251620;28;20083;-57
2023/04/01 08:25:07;;;;;;;5.32;4.90;;;;;;;;;;4250023;28;20059;-57
2023/04/01 08:27:30;;;;;;;7.18;6.78;;;;;;;;;;4246629;28;20404;-57
2023/04/01 08:29:56;;;;;;;12.30;7.90;;;;;;;;;;4243830;28;20047;-57
2023/04/01 08:32:22;;;;;;;7.25;6.68;;;;;;;;;;4252547;28;20046;-57
2023/04/01 08:34:44;;;;;;;5.53;5.30;;;;;;;;;;4247995;28;20039;-57
2023/04/01 08:37:11;;;;;;;9.13;6.70;;;;;;;;;;4244462;27;20051;-57
2023/04/01 08:39:32;;;;;;;6.15;5.85;;;;;;;;;;4247570;28;20042;-58
2023/04/01 08:41:52;;;;;;;5.63;5.10;;;;;;;;;;4252399;28;20078;-58
2023/04/01 08:44:31;;;;;;;8.23;6.35;;;;;;;;;;4250425;28;20265;-58
2023/04/01 08:47:10;;;;;;;8.70;7.95;;;;;;;;;;4248831;28;20406;-58
2023/04/01 08:49:40;;;;;;;6.40;6.10;;;;;;;;;;4249951;28;20485;-57
2023/04/01 08:52:19;;;;;;;8.20;7.38;;;;;;;;;;4252853;28;20349;-57
2023/04/01 08:55:09;;;;;;;5.75;4.85;;;;;;;;;;4246999;28;20039;-58
2023/04/01 08:57:38;;;;;;;6.85;4.30;;;;;;;;;;4181167;28;20057;-57
2023/04/01 08:59:58;;;;;;;4.03;3.90;;;;;;;;;;4245363;28;20054;-58
2023/04/01 09:02:24;;;;;;;4.82;4.43;;;;;;;;;;4250043;28;20050;-57
2023/04/01 09:04:47;;;;;;;4.68;3.80;;;;;;;;;;4251056;28;20070;-57
2023/04/01 09:07:11;;;;;;;14.57;3.38;;;;;;;;;;4246468;28;20042;-57
2023/04/01 09:09:52;;;;;;;5.35;3.80;;;;;;;;;;4244835;28;20269;-58
2023/04/01 09:12:31;;;;;;;5.63;2.92;;;;;;;;;;4220093;28;20077;-58
2023/04/01 09:14:53;;;;;;;6.60;3.25;;;;;;;;;;4251318;28;20051;-58
2023/04/01 09:17:29;;;;;;;4.75;2.17;;;;;;;;;;4244568;28;20043;-58
2023/04/01 09:20:19;;;;;;;3.95;2.00;;;;;;;;;;4245186;28;20116;-58
2023/04/01 09:22:55;;;;;;;5.85;3.60;;;;;;;;;;4176006;28;20064;-58
2023/04/01 09:25:38;;;;;;;3.63;2.33;;;;;;;;;;4180314;28;20044;-58
2023/04/01 09:27:58;;;;;;;4.50;2.53;;;;;;;;;;4176629;28;20203;-58
2023/04/01 09:30:18;;;;;;;5.90;3.28;;;;;;;;;;4178725;28;20052;-58
2023/04/01 09:32:39;;;;;;;2.53;2.28;;;;;;;;;;4181416;28;20095;-58
2023/04/01 09:35:05;;;;;;;3.08;2.78;;;;;;;;;;4178238;28;20256;-57
2023/04/01 09:37:29;;;;;;;5.13;2.90;;;;;;;;;;4176951;28;20048;-57
2023/04/01 09:40:08;;;;;;;5.35;3.35;;;;;;;;;;4177816;28;20075;-57
2023/04/01 09:42:40;;;;;;;2.33;1.75;;;;;;;;;;4175987;28;20076;-57
2023/04/01 09:45:02;;;;;;;2.65;2.15;;;;;;;;;;4176460;28;20052;-57
2023/04/01 09:47:22;;;;;;;4.22;2.33;;;;;;;;;;4180799;28;20075;-57
2023/04/01 09:49:42;;;;;;;2.17;1.98;;;;;;;;;;4177515;28;20147;-57
2023/04/01 09:52:08;;;;;;;7.90;2.10;;;;;;;;;;4181940;28;20079;-57
2023/04/01 09:54:41;;;;;;;2.47;2.35;;;;;;;;;;4175395;28;20139;-57
2023/04/01 09:57:10;;;;;;;3.17;1.83;;;;;;;;;;4177871;28;20463;-58
2023/04/01 09:59:43;;;;;;;3.78;1.35;;;;;;;;;;4230570;28;20071;-57
2023/04/01 10:02:22;;;;;;;2.08;1.98;;;;;;;;;;4243355;28;20090;-57
2023/04/01 10:04:56;;;;;;;3.67;1.92;;;;;;;;;;4250926;28;20038;-57
2023/04/01 10:07:35;;;;;;;3.25;1.20;;;;;;;;;;4248294;28;20275;-57
2023/04/01 10:09:55;;;;;;;6.15;2.00;;;;;;;;;;4249121;28;20049;-57
2023/04/01 10:12:32;;;;;;;3.03;2.83;;;;;;;;;;4244519;28;20049;-57
2023/04/01 10:15:11;;;;;;;3.78;2.38;;;;;;;;;;4244026;28;20145;-58
2023/04/01 10:17:34;;;;;;;3.08;2.35;;;;;;;;;;4245161;28;20077;-57
2023/04/01 10:20:07;;;;;;;2.03;1.88;;;;;;;;;;4249462;28;20054;-57
2023/04/01 10:22:46;;;;;;;4.72;1.45;;;;;;;;;;4238916;28;20358;-57
2023/04/01 10:25:09;;;;;;;6.30;3.28;;;;;;;;;;4246575;28;20046;-57
2023/04/01 10:27:32;;;;;;;2.97;1.45;;;;;;;;;;4248868;28;20050;-57
2023/04/01 10:30:11;;;;;;;4.45;2.60;;;;;;;;;;4244271;28;20049;-57
2023/04/01 10:32:35;;;;;;;3.22;1.80;;;;;;;;;;4242468;28;20061;-57
2023/04/01 10:35:15;;;;;;;3.45;1.73;;;;;;;;;;4246474;28;20054;-57
2023/04/01 10:37:38;;;;;;;2.60;2.40;;;;;;;;;;4247363;28;20232;-57
2023/04/01 10:40:01;;;;;;;3.28;1.45;;;;;;;;;;4246351;28;20039;-57
2023/04/01 10:42:21;;;;;;;1.33;1.20;;;;;;;;;;4243178;28;20082;-58
2023/04/01 10:44:41;;;;;;;2.05;1.95;;;;;;;;;;4248172;28;20042;-58
2023/04/01 10:47:20;;;;;;;3.20;1.95;;;;;;;;;;4243313;28;20101;-57
2023/04/01 10:49:47;;;;;;;2.67;1.45;;;;;;;;;;4246103;28;20214;-57
2023/04/01 10:52:16;;;;;;;2.55;1.48;;;;;;;;;;4250205;28;20091;-57
2023/04/01 10:54:46;;;;;;;1.73;1.40;;;;;;;;;;4242251;28;20077;-58
2023/04/01 10:57:09;;;;;;;1.92;1.83;;;;;;;;;;4245957;28;20051;-58
2023/04/01 10:59:32;;;;;;;3.45;1.55;;;;;;;;;;4246829;28;20365;-58
2023/04/01 11:02:04;;;;;;;1.67;1.20;;;;;;;;;;4248118;28;20070;-57
2023/04/01 11:04:42;;;;;;;1.40;1.40;;;;;;;;;;4241764;28;20047;-57
2023/04/01 11:07:15;;;;;;;1.63;1.50;;;;;;;;;;4247107;28;20084;-57
2023/04/01 11:09:44;;;;;;;1.20;1.20;;;;;;;;;;4245145;28;20137;-58
2023/04/01 11:12:20;;;;;;;1.02;1.00;;;;;;;;;;4241522;28;20089;-57
2023/04/01 11:14:40;;;;;;;2.97;1.40;;;;;;;;;;4249663;28;20039;-58
2023/04/01 11:17:19;;;;;;;2.45;1.20;;;;;;;;;;4243419;28;20119;-57
2023/04/01 11:19:52;;;;;;;1.70;1.23;;;;;;;;;;4241545;28;20035;-57
2023/04/01 11:22:15;;;;;;;4.53;1.20;;;;;;;;;;4242247;28;20104;-57
2023/04/01 11:24:41;;;;;;;1.17;1.08;;;;;;;;;;4245766;28;20208;-57
2023/04/01 11:27:05;;;;;;;2.17;1.30;;;;;;;;;;4241607;28;20054;-57
2023/04/01 11:29:48;;;;;;;1.38;1.10;;;;;;;;;;4241111;28;20065;-57
2023/04/01 11:32:42;;;;;;;1.15;1.00;;;;;;;;;;4240766;28;20047;-57
2023/04/01 11:35:03;;;;;;;2.47;1.10;;;;;;;;;;4243158;28;20058;-57
2023/04/01 11:37:23;;;;;;;1.30;1.00;;;;;;;;;;4243055;28;20055;-57
2023/04/01 11:39:55;;;;;;;1.50;1.10;;;;;;;;;;4250171;28;20049;-57
2023/04/01 11:42:29;;;;;;;2.15;1.20;;;;;;;;;;4249549;28;20055;-57
2023/04/01 11:45:04;;;;;;;1.48;1.10;;;;;;;;;;4247273;28;20119;-57
2023/04/01 11:47:40;;;;;;;1.38;0.93;;;;;;;;;;4250088;28;20060;-57
2023/04/01 11:50:03;;;;;;;1.77;1.63;;;;;;;;;;4253480;28;20088;-57
2023/04/01 11:52:36;;;;;;;1.50;1.00;;;;;;;;;;4245263;28;20050;-57
2023/04/01 11:55:00;;;;;;;6.10;2.28;;;;;;;;;;4249557;28;20050;-57
2023/04/01 11:57:21;;;;;;;2.47;1.25;;;;;;;;;;4248135;28;20062;-57
2023/04/01 11:59:53;;;;;;;1.27;1.27;;;;;;;;;;4249418;28;20042;-57
2023/04/01 12:02:32;;;;;;;2.50;1.43;;;;;;;;;;4244481;28;20042;-57
2023/04/01 12:05:03;;;;;;;2.45;1.52;;;;;;;;;;4245904;28;20096;-57
2023/04/01 12:07:23;;;;;;;1.05;1.00;;;;;;;;;;4248404;28;20092;-57
2023/04/01 12:09:43;;;;;;;1.30;1.20;;;;;;;;;;4247678;28;20049;-57
2023/04/01 12:12:24;;;;;;;3.08;1.02;;;;;;;;;;4248689;28;20088;-57
2023/04/01 12:14:53;;;;;;;1.40;1.00;;;;;;;;;;4247121;28;20084;-57
2023/04/01 12:17:32;;;;;;;2.22;1.40;;;;;;;;;;4250121;28;20103;-57
2023/04/01 12:19:55;;;;;;;1.20;1.10;;;;;;;;;;4246130;28;20238;-57
2023/04/01 12:22:35;;;;;;;4.55;1.85;;;;;;;;;;4250797;28;20058;-57
2023/04/01 12:25:15;;;;;;;2.25;1.30;;;;;;;;;;4245460;28;20362;-57
2023/04/01 12:27:38;;;;;;;2.22;1.17;;;;;;;;;;4248636;28;20129;-57
2023/04/01 12:29:58;;;;;;;2.10;1.20;;;;;;;;;;4252635;28;20054;-57
2023/04/01 12:32:19;;;;;;;5.25;1.58;;;;;;;;;;4248517;28;20236;-57
2023/04/01 12:34:49;;;;;;;5.85;3.90;;;;;;;;;;4250721;28;20369;-57
2023/04/01 12:37:28;;;;;;;3.47;1.17;;;;;;;;;;4247784;28;20043;-57
2023/04/01 12:40:12;;;;;;;1.65;1.55;;;;;;;;;;4245819;28;20077;-57
2023/04/01 12:42:32;;;;;;;;;;;;;;;;;;4218558;28;20224;-57
2023/04/01 12:44:58;;;;;;;1.90;1.30;;;;;;;;;;4244639;28;19956;-57
2023/04/01 12:47:34;;;;;;;2.47;1.33;;;;;;;;;;4249888;28;20165;-57
2023/04/01 12:49:58;;;;;;;1.10;1.00;;;;;;;;;;4246421;28;20065;-56
2023/04/01 12:52:18;;;;;;;2.65;1.95;;;;;;;;;;4244459;28;20354;-57
2023/04/01 12:54:51;;;;;;;3.63;1.60;;;;;;;;;;4251406;28;20125;-56
2023/04/01 12:57:37;;;;;;;3.10;1.58;;;;;;;;;;4248372;28;20384;-57
2023/04/01 13:00:12;;;;;;;1.73;1.20;;;;;;;;;;4246832;28;20047;-57
2023/04/01 13:02:33;;;;;;;2.45;1.15;;;;;;;;;;4245389;28;20054;-57
2023/04/01 13:05:02;;;;;;;2.45;1.10;;;;;;;;;;4244951;28;20087;-57
2023/04/01 13:07:28;;;;;;;1.25;1.10;;;;;;;;;;4248253;28;20057;-57
2023/04/01 13:10:02;;;;;;;1.77;1.15;;;;;;;;;;4248035;28;20235;-57
2023/04/01 13:12:35;;;;;;;1.42;1.20;;;;;;;;;;4232488;28;20050;-57
2023/04/01 13:15:06;;;;;;;7.25;4.35;;;;;;;;;;4247149;28;20050;-57
2023/04/01 13:17:45;;;;;;;2.10;1.10;;;;;;;;;;4250844;28;20281;-57
2023/04/01 13:20:20;;;;;;;4.03;1.23;;;;;;;;;;4244749;28;20046;-57
2023/04/01 13:22:58;;;;;;;1.45;1.40;;;;;;;;;;4247781;28;20091;-57
2023/04/01 13:25:51;;;;;;;1.70;1.38;;;;;;;;;;4249204;28;20035;-57
2023/04/01 13:28:32;;;;;;;3.92;1.65;;;;;;;;;;4222961;28;20394;-57
2023/04/01 13:31:05;;;;;;;4.80;1.85;;;;;;;;;;4244290;28;20145;-57
2023/04/01 13:33:29;;;;;;;;;;;;;;;;;;4246741;28;20050;-57
2023/04/01 13:36:13;;;;;;;1.73;1.63;;;;;;;;;;4243424;28;19922;-57
2023/04/01 13:38:43;;;;;;;1.60;1.50;;;;;;;;;;4244211;28;20042;-56
2023/04/01 13:41:22;;;;;;;1.55;1.10;;;;;;;;;;4249937;28;20365;-57
2023/04/01 13:43:42;;;;;;;2.03;1.00;;;;;;;;;;4243084;28;20089;-57
2023/04/01 13:46:02;;;;;;;1.20;1.10;;;;;;;;;;4250691;28;20369;-57
2023/04/01 13:48:33;;;;;;;2.30;1.10;;;;;;;;;;4243094;28;20047;-57
2023/04/01 13:50:59;;;;;;;2.15;1.00;;;;;;;;;;4248725;28;20051;-56
2023/04/01 13:53:38;;;;;;;2.58;1.10;;;;;;;;;;4242800;28;20034;-57
2023/04/01 13:56:18;;;;;;;1.15;1.00;;;;;;;;;;4242706;28;20042;-56
2023/04/01 13:58:44;;;;;;;1.77;1.20;;;;;;;;;;4239241;28;20034;-57
2023/04/01 14:01:11;;;;;;;1.40;1.02;;;;;;;;;;4247096;28;20100;-57
2023/04/01 14:03:37;;;;;;;2.80;1.10;;;;;;;;;;4244245;28;20046;-57
2023/04/01 14:06:13;;;;;;;4.55;1.17;;;;;;;;;;4244420;28;20236;-57
2023/04/01 14:08:52;;;;;;;1.10;1.10;;;;;;;;;;4239440;28;20054;-57
2023/04/01 14:11:39;;;;;;;1.42;1.20;;;;;;;;;;4250301;28;20081;-57
2023/04/01 14:14:12;;;;;;;1.50;1.00;;;;;;;;;;4246652;28;20219;-57
2023/04/01 14:16:41;;;;;;;2.83;0.95;;;;;;;;;;4247595;28;20043;-57
2023/04/01 14:19:08;;;;;;;3.05;1.45;;;;;;;;;;4244840;28;20073;-57
2023/04/01 14:21:28;;;;;;;2.25;1.10;;;;;;;;;;4246281;28;20043;-57
2023/04/01 14:23:58;;;;;;;1.50;1.08;;;;;;;;;;4245436;28;20043;-57
2023/04/01 14:26:18;;;;;;;2.60;1.25;;;;;;;;;;4246352;28;20107;-58
2023/04/01 14:28:50;;;;;;;2.47;1.10;;;;;;;;;;4244477;28;20054;-57
2023/04/01 14:31:31;;;;;;;3.97;1.55;;;;;;;;;;4244458;28;20231;-58